sensor_id;sensor_type;location;lat;lon;timestamp;P1;durP1;ratioP1;P2;durP2;ratioP2
42198;SDS011;27868;45.184;5.786;2022-07-29T00:01:44;2.70;;;1.58;;
42198;SDS011;27868;45.184;5.786;2022-07-29T00:04:28;5.43;;;1.65;;
42198;SDS011;27868;45.184;5.786;2022-07-29T00:07:12;5.35;;;1.88;;
42198;SDS011;27868;45.184;5.786;2022-07-29T00:09:57;2.30;;;1.50;;
42198;SDS011;27868;45.184;5.786;2022-07-29T00:12:41;3.58;;;1.42;;
42198;SDS011;27868;45.184;5.786;2022-07-29T00:15:26;2.33;;;1.42;;
42198;SDS011;27868;45.184;5.786;2022-07-29T00:18:10;3.10;;;1.48;;
42198;SDS011;27868;45.184;5.786;2022-07-29T00:20:55;5.10;;;1.65;;
42198;SDS011;27868;45.184;5.786;2022-07-29T00:23:39;4.18;;;1.52;;
42198;SDS011;27868;45.184;5.786;2022-07-29T00:26:25;1.88;;;1.55;;
42198;SDS011;27868;45.184;5.786;2022-07-29T00:29:11;3.08;;;1.52;;
42198;SDS011;27868;45.184;5.786;2022-07-29T00:31:56;2.85;;;1.52;;
42198;SDS011;27868;45.184;5.786;2022-07-29T00:34:40;2.45;;;1.60;;
42198;SDS011;27868;45.184;5.786;2022-07-29T00:37:44;2.13;;;1.50;;
42198;SDS011;27868;45.184;5.786;2022-07-29T00:40:28;4.45;;;1.58;;
42198;SDS011;27868;45.184;5.786;2022-07-29T00:43:14;3.30;;;1.80;;
42198;SDS011;27868;45.184;5.786;2022-07-29T00:46:00;2.97;;;1.70;;
42198;SDS011;27868;45.184;5.786;2022-07-29T00:48:45;5.70;;;1.77;;
42198;SDS011;27868;45.184;5.786;2022-07-29T00:51:30;3.30;;;1.50;;
42198;SDS011;27868;45.184;5.786;2022-07-29T00:54:15;3.85;;;1.90;;
42198;SDS011;27868;45.184;5.786;2022-07-29T00:57:00;3.95;;;1.63;;
42198;SDS011;27868;45.184;5.786;2022-07-29T00:59:45;2.92;;;1.65;;
42198;SDS011;27868;45.184;5.786;2022-07-29T01:02:30;2.78;;;1.50;;
42198;SDS011;27868;45.184;5.786;2022-07-29T01:05:16;3.88;;;2.13;;
42198;SDS011;27868;45.184;5.786;2022-07-29T01:08:03;2.03;;;1.35;;
42198;SDS011;27868;45.184;5.786;2022-07-29T01:10:47;3.40;;;1.55;;
42198;SDS011;27868;45.184;5.786;2022-07-29T01:13:35;4.45;;;1.58;;
42198;SDS011;27868;45.184;5.786;2022-07-29T01:16:33;2.63;;;1.45;;
42198;SDS011;27868;45.184;5.786;2022-07-29T01:34:53;3.20;;;1.60;;
42198;SDS011;27868;45.184;5.786;2022-07-29T01:43:53;3.10;;;1.88;;
42198;SDS011;27868;45.184;5.786;2022-07-29T01:46:56;5.70;;;1.77;;
42198;SDS011;27868;45.184;5.786;2022-07-29T01:49:46;4.03;;;1.60;;
42198;SDS011;27868;45.184;5.786;2022-07-29T01:52:42;4.07;;;1.85;;
42198;SDS011;27868;45.184;5.786;2022-07-29T01:55:34;5.45;;;2.20;;
42198;SDS011;27868;45.184;5.786;2022-07-29T01:58:22;2.72;;;1.50;;
42198;SDS011;27868;45.184;5.786;2022-07-29T02:01:09;3.53;;;1.95;;
42198;SDS011;27868;45.184;5.786;2022-07-29T02:03:55;2.45;;;1.73;;
42198;SDS011;27868;45.184;5.786;2022-07-29T02:06:43;2.42;;;1.75;;
42198;SDS011;27868;45.184;5.786;2022-07-29T02:09:31;3.47;;;1.80;;
42198;SDS011;27868;45.184;5.786;2022-07-29T02:12:19;2.03;;;1.70;;
42198;SDS011;27868;45.184;5.786;2022-07-29T02:15:06;2.65;;;1.50;;
42198;SDS011;27868;45.184;5.786;2022-07-29T02:17:56;4.63;;;1.80;;
42198;SDS011;27868;45.184;5.786;2022-07-29T02:20:46;3.35;;;1.55;;
42198;SDS011;27868;45.184;5.786;2022-07-29T02:23:33;4.57;;;1.40;;
42198;SDS011;27868;45.184;5.786;2022-07-29T02:26:20;5.28;;;1.60;;
42198;SDS011;27868;45.184;5.786;2022-07-29T02:29:07;2.63;;;1.35;;
42198;SDS011;27868;45.184;5.786;2022-07-29T02:31:54;2.58;;;1.40;;
42198;SDS011;27868;45.184;5.786;2022-07-29T02:34:41;3.90;;;1.75;;
42198;SDS011;27868;45.184;5.786;2022-07-29T02:37:27;3.40;;;1.40;;
42198;SDS011;27868;45.184;5.786;2022-07-29T02:40:14;4.90;;;1.70;;
42198;SDS011;27868;45.184;5.786;2022-07-29T02:43:01;3.00;;;1.42;;
42198;SDS011;27868;45.184;5.786;2022-07-29T02:45:47;3.60;;;1.75;;
42198;SDS011;27868;45.184;5.786;2022-07-29T02:48:37;4.28;;;2.03;;
42198;SDS011;27868;45.184;5.786;2022-07-29T02:51:29;3.28;;;1.85;;
42198;SDS011;27868;45.184;5.786;2022-07-29T02:54:20;2.72;;;1.95;;
42198;SDS011;27868;45.184;5.786;2022-07-29T02:58:02;3.72;;;1.90;;
42198;SDS011;27868;45.184;5.786;2022-07-29T03:00:26;3.25;;;2.03;;
42198;SDS011;27868;45.184;5.786;2022-07-29T03:03:13;5.88;;;1.80;;
42198;SDS011;27868;45.184;5.786;2022-07-29T03:06:01;2.38;;;1.75;;
42198;SDS011;27868;45.184;5.786;2022-07-29T03:08:46;2.97;;;1.73;;
42198;SDS011;27868;45.184;5.786;2022-07-29T03:11:32;3.72;;;1.48;;
42198;SDS011;27868;45.184;5.786;2022-07-29T03:14:19;3.05;;;1.70;;
42198;SDS011;27868;45.184;5.786;2022-07-29T03:17:04;4.60;;;1.98;;
42198;SDS011;27868;45.184;5.786;2022-07-29T03:19:49;4.68;;;1.50;;
42198;SDS011;27868;45.184;5.786;2022-07-29T03:22:38;4.13;;;1.60;;
42198;SDS011;27868;45.184;5.786;2022-07-29T03:25:27;4.55;;;1.90;;
42198;SDS011;27868;45.184;5.786;2022-07-29T03:28:13;2.35;;;1.60;;
42198;SDS011;27868;45.184;5.786;2022-07-29T03:30:58;4.43;;;1.73;;
42198;SDS011;27868;45.184;5.786;2022-07-29T03:33:42;4.50;;;1.75;;
42198;SDS011;27868;45.184;5.786;2022-07-29T03:36:27;3.97;;;1.58;;
42198;SDS011;27868;45.184;5.786;2022-07-29T03:39:11;7.70;;;1.83;;
42198;SDS011;27868;45.184;5.786;2022-07-29T03:42:01;6.85;;;1.67;;
42198;SDS011;27868;45.184;5.786;2022-07-29T03:44:48;3.78;;;1.55;;
42198;SDS011;27868;45.184;5.786;2022-07-29T03:47:35;3.67;;;1.20;;
42198;SDS011;27868;45.184;5.786;2022-07-29T03:50:20;2.85;;;1.88;;
42198;SDS011;27868;45.184;5.786;2022-07-29T03:53:06;3.42;;;1.77;;
42198;SDS011;27868;45.184;5.786;2022-07-29T03:55:54;3.38;;;1.70;;
42198;SDS011;27868;45.184;5.786;2022-07-29T03:58:43;4.68;;;1.90;;
42198;SDS011;27868;45.184;5.786;2022-07-29T04:01:29;5.97;;;1.75;;
42198;SDS011;27868;45.184;5.786;2022-07-29T04:04:16;2.83;;;1.73;;
42198;SDS011;27868;45.184;5.786;2022-07-29T04:07:01;3.78;;;1.80;;
42198;SDS011;27868;45.184;5.786;2022-07-29T04:09:46;3.55;;;2.22;;
42198;SDS011;27868;45.184;5.786;2022-07-29T04:12:31;3.22;;;1.77;;
42198;SDS011;27868;45.184;5.786;2022-07-29T04:15:15;2.63;;;1.70;;
42198;SDS011;27868;45.184;5.786;2022-07-29T04:18:00;3.08;;;1.60;;
42198;SDS011;27868;45.184;5.786;2022-07-29T04:20:44;2.15;;;1.70;;
42198;SDS011;27868;45.184;5.786;2022-07-29T04:23:29;2.75;;;1.75;;
42198;SDS011;27868;45.184;5.786;2022-07-29T04:26:17;4.22;;;2.00;;
42198;SDS011;27868;45.184;5.786;2022-07-29T04:29:03;3.13;;;1.67;;
42198;SDS011;27868;45.184;5.786;2022-07-29T04:31:47;5.35;;;1.73;;
42198;SDS011;27868;45.184;5.786;2022-07-29T04:34:31;4.50;;;2.00;;
42198;SDS011;27868;45.184;5.786;2022-07-29T04:37:16;3.58;;;1.90;;
42198;SDS011;27868;45.184;5.786;2022-07-29T04:40:01;2.88;;;1.75;;
42198;SDS011;27868;45.184;5.786;2022-07-29T04:42:46;3.00;;;1.60;;
42198;SDS011;27868;45.184;5.786;2022-07-29T04:45:30;4.93;;;1.88;;
42198;SDS011;27868;45.184;5.786;2022-07-29T04:48:15;3.67;;;1.83;;
42198;SDS011;27868;45.184;5.786;2022-07-29T04:51:00;5.43;;;1.85;;
42198;SDS011;27868;45.184;5.786;2022-07-29T04:53:45;2.08;;;1.60;;
42198;SDS011;27868;45.184;5.786;2022-07-29T04:56:29;5.72;;;1.60;;
42198;SDS011;27868;45.184;5.786;2022-07-29T04:59:14;3.45;;;1.73;;
42198;SDS011;27868;45.184;5.786;2022-07-29T05:01:58;5.65;;;2.00;;
42198;SDS011;27868;45.184;5.786;2022-07-29T05:04:43;3.85;;;1.70;;
42198;SDS011;27868;45.184;5.786;2022-07-29T05:07:28;2.72;;;1.70;;
42198;SDS011;27868;45.184;5.786;2022-07-29T05:10:12;3.50;;;1.48;;
42198;SDS011;27868;45.184;5.786;2022-07-29T05:12:57;3.55;;;1.60;;
42198;SDS011;27868;45.184;5.786;2022-07-29T05:15:42;2.95;;;1.75;;
42198;SDS011;27868;45.184;5.786;2022-07-29T05:18:26;5.57;;;1.80;;
42198;SDS011;27868;45.184;5.786;2022-07-29T05:21:11;5.22;;;2.10;;
42198;SDS011;27868;45.184;5.786;2022-07-29T05:23:55;3.33;;;1.70;;
42198;SDS011;27868;45.184;5.786;2022-07-29T05:26:40;3.95;;;2.15;;
42198;SDS011;27868;45.184;5.786;2022-07-29T05:29:25;4.43;;;1.80;;
42198;SDS011;27868;45.184;5.786;2022-07-29T05:32:10;4.10;;;1.63;;
42198;SDS011;27868;45.184;5.786;2022-07-29T05:34:55;5.82;;;1.60;;
42198;SDS011;27868;45.184;5.786;2022-07-29T05:37:40;3.83;;;2.13;;
42198;SDS011;27868;45.184;5.786;2022-07-29T05:40:25;6.22;;;2.50;;
42198;SDS011;27868;45.184;5.786;2022-07-29T05:43:10;2.67;;;2.00;;
42198;SDS011;27868;45.184;5.786;2022-07-29T05:45:54;5.88;;;2.40;;
42198;SDS011;27868;45.184;5.786;2022-07-29T05:48:39;6.63;;;2.10;;
42198;SDS011;27868;45.184;5.786;2022-07-29T05:51:24;7.65;;;2.45;;
42198;SDS011;27868;45.184;5.786;2022-07-29T05:54:09;3.65;;;2.20;;
42198;SDS011;27868;45.184;5.786;2022-07-29T05:56:54;16.02;;;3.20;;
42198;SDS011;27868;45.184;5.786;2022-07-29T05:59:39;6.28;;;2.05;;
42198;SDS011;27868;45.184;5.786;2022-07-29T06:02:24;5.90;;;2.20;;
42198;SDS011;27868;45.184;5.786;2022-07-29T06:05:09;7.68;;;2.53;;
42198;SDS011;27868;45.184;5.786;2022-07-29T06:07:53;3.83;;;2.08;;
42198;SDS011;27868;45.184;5.786;2022-07-29T06:10:38;6.55;;;2.28;;
42198;SDS011;27868;45.184;5.786;2022-07-29T06:13:22;9.32;;;2.53;;
42198;SDS011;27868;45.184;5.786;2022-07-29T06:16:06;5.43;;;2.65;;
42198;SDS011;27868;45.184;5.786;2022-07-29T06:18:51;6.45;;;2.10;;
42198;SDS011;27868;45.184;5.786;2022-07-29T06:21:36;3.45;;;2.30;;
42198;SDS011;27868;45.184;5.786;2022-07-29T06:24:24;5.55;;;2.80;;
42198;SDS011;27868;45.184;5.786;2022-07-29T06:27:12;7.32;;;2.88;;
42198;SDS011;27868;45.184;5.786;2022-07-29T06:29:56;11.80;;;3.10;;
42198;SDS011;27868;45.184;5.786;2022-07-29T06:32:41;6.88;;;2.63;;
42198;SDS011;27868;45.184;5.786;2022-07-29T06:35:26;9.00;;;2.90;;
42198;SDS011;27868;45.184;5.786;2022-07-29T06:38:10;11.90;;;3.08;;
42198;SDS011;27868;45.184;5.786;2022-07-29T06:40:56;7.65;;;2.60;;
42198;SDS011;27868;45.184;5.786;2022-07-29T06:43:44;6.78;;;2.30;;
42198;SDS011;27868;45.184;5.786;2022-07-29T06:46:29;5.07;;;2.67;;
42198;SDS011;27868;45.184;5.786;2022-07-29T06:49:14;4.22;;;2.50;;
42198;SDS011;27868;45.184;5.786;2022-07-29T06:51:58;4.78;;;2.40;;
42198;SDS011;27868;45.184;5.786;2022-07-29T06:54:42;5.03;;;2.60;;
42198;SDS011;27868;45.184;5.786;2022-07-29T06:57:32;9.75;;;2.88;;
42198;SDS011;27868;45.184;5.786;2022-07-29T07:00:17;8.13;;;2.45;;
42198;SDS011;27868;45.184;5.786;2022-07-29T07:03:01;6.70;;;2.28;;
42198;SDS011;27868;45.184;5.786;2022-07-29T07:05:46;6.95;;;2.50;;
42198;SDS011;27868;45.184;5.786;2022-07-29T07:08:31;4.50;;;2.28;;
42198;SDS011;27868;45.184;5.786;2022-07-29T07:11:16;5.00;;;2.40;;
42198;SDS011;27868;45.184;5.786;2022-07-29T07:14:00;6.22;;;2.97;;
42198;SDS011;27868;45.184;5.786;2022-07-29T07:16:45;4.78;;;2.65;;
42198;SDS011;27868;45.184;5.786;2022-07-29T07:19:29;8.45;;;2.30;;
42198;SDS011;27868;45.184;5.786;2022-07-29T07:22:14;5.03;;;2.53;;
42198;SDS011;27868;45.184;5.786;2022-07-29T07:24:59;5.15;;;2.78;;
42198;SDS011;27868;45.184;5.786;2022-07-29T07:27:44;7.38;;;2.58;;
42198;SDS011;27868;45.184;5.786;2022-07-29T07:30:29;4.45;;;2.50;;
42198;SDS011;27868;45.184;5.786;2022-07-29T07:33:13;4.95;;;2.33;;
42198;SDS011;27868;45.184;5.786;2022-07-29T07:35:58;4.20;;;2.28;;
42198;SDS011;27868;45.184;5.786;2022-07-29T07:38:43;7.50;;;2.10;;
42198;SDS011;27868;45.184;5.786;2022-07-29T07:41:27;8.45;;;2.72;;
42198;SDS011;27868;45.184;5.786;2022-07-29T07:44:12;5.20;;;2.60;;
42198;SDS011;27868;45.184;5.786;2022-07-29T07:46:56;5.78;;;2.90;;
42198;SDS011;27868;45.184;5.786;2022-07-29T07:49:41;6.72;;;2.63;;
42198;SDS011;27868;45.184;5.786;2022-07-29T07:52:25;5.85;;;2.60;;
42198;SDS011;27868;45.184;5.786;2022-07-29T07:55:10;10.50;;;2.97;;
42198;SDS011;27868;45.184;5.786;2022-07-29T07:57:54;6.32;;;2.50;;
42198;SDS011;27868;45.184;5.786;2022-07-29T08:00:39;8.50;;;2.80;;
42198;SDS011;27868;45.184;5.786;2022-07-29T08:03:24;5.68;;;2.58;;
42198;SDS011;27868;45.184;5.786;2022-07-29T08:06:08;5.38;;;2.45;;
42198;SDS011;27868;45.184;5.786;2022-07-29T08:08:53;6.13;;;2.80;;
42198;SDS011;27868;45.184;5.786;2022-07-29T08:11:38;9.48;;;2.63;;
42198;SDS011;27868;45.184;5.786;2022-07-29T08:14:22;6.70;;;2.65;;
42198;SDS011;27868;45.184;5.786;2022-07-29T08:17:07;16.35;;;3.40;;
42198;SDS011;27868;45.184;5.786;2022-07-29T08:19:52;6.53;;;2.70;;
42198;SDS011;27868;45.184;5.786;2022-07-29T08:22:36;10.60;;;2.90;;
42198;SDS011;27868;45.184;5.786;2022-07-29T08:25:21;6.25;;;2.35;;
42198;SDS011;27868;45.184;5.786;2022-07-29T08:28:06;7.82;;;2.58;;
42198;SDS011;27868;45.184;5.786;2022-07-29T08:30:51;5.55;;;2.55;;
42198;SDS011;27868;45.184;5.786;2022-07-29T08:33:36;6.50;;;2.10;;
42198;SDS011;27868;45.184;5.786;2022-07-29T08:36:21;7.28;;;2.13;;
42198;SDS011;27868;45.184;5.786;2022-07-29T08:39:06;6.28;;;2.15;;
42198;SDS011;27868;45.184;5.786;2022-07-29T08:41:51;5.93;;;1.77;;
42198;SDS011;27868;45.184;5.786;2022-07-29T08:44:36;3.95;;;2.28;;
42198;SDS011;27868;45.184;5.786;2022-07-29T08:47:21;4.70;;;2.00;;
42198;SDS011;27868;45.184;5.786;2022-07-29T08:50:09;8.93;;;2.10;;
42198;SDS011;27868;45.184;5.786;2022-07-29T08:52:55;6.40;;;2.53;;
42198;SDS011;27868;45.184;5.786;2022-07-29T08:55:43;29.02;;;4.65;;
42198;SDS011;27868;45.184;5.786;2022-07-29T08:58:31;14.13;;;4.43;;
42198;SDS011;27868;45.184;5.786;2022-07-29T09:01:20;13.98;;;4.32;;
42198;SDS011;27868;45.184;5.786;2022-07-29T09:04:10;13.77;;;4.53;;
42198;SDS011;27868;45.184;5.786;2022-07-29T09:06:56;8.90;;;3.30;;
42198;SDS011;27868;45.184;5.786;2022-07-29T09:09:44;7.37;;;3.83;;
42198;SDS011;27868;45.184;5.786;2022-07-29T09:12:29;10.77;;;2.88;;
42198;SDS011;27868;45.184;5.786;2022-07-29T09:15:15;5.30;;;2.78;;
42198;SDS011;27868;45.184;5.786;2022-07-29T09:17:59;6.00;;;2.80;;
42198;SDS011;27868;45.184;5.786;2022-07-29T09:20:49;5.68;;;2.78;;
42198;SDS011;27868;45.184;5.786;2022-07-29T09:24:12;10.68;;;3.05;;
42198;SDS011;27868;45.184;5.786;2022-07-29T09:26:57;6.05;;;3.50;;
42198;SDS011;27868;45.184;5.786;2022-07-29T09:29:41;6.72;;;3.70;;
42198;SDS011;27868;45.184;5.786;2022-07-29T09:32:26;12.25;;;3.35;;
42198;SDS011;27868;45.184;5.786;2022-07-29T09:35:15;8.77;;;3.58;;
42198;SDS011;27868;45.184;5.786;2022-07-29T09:38:11;7.65;;;3.50;;
42198;SDS011;27868;45.184;5.786;2022-07-29T09:40:57;7.38;;;3.80;;
42198;SDS011;27868;45.184;5.786;2022-07-29T09:43:52;9.77;;;4.70;;
42198;SDS011;27868;45.184;5.786;2022-07-29T09:46:38;10.32;;;4.43;;
42198;SDS011;27868;45.184;5.786;2022-07-29T09:49:23;8.07;;;4.28;;
42198;SDS011;27868;45.184;5.786;2022-07-29T09:52:08;10.15;;;4.43;;
42198;SDS011;27868;45.184;5.786;2022-07-29T09:55:08;11.30;;;4.07;;
42198;SDS011;27868;45.184;5.786;2022-07-29T09:57:54;8.07;;;4.30;;
42198;SDS011;27868;45.184;5.786;2022-07-29T10:00:59;10.05;;;3.92;;
42198;SDS011;27868;45.184;5.786;2022-07-29T10:03:51;5.95;;;3.78;;
42198;SDS011;27868;45.184;5.786;2022-07-29T10:06:40;14.38;;;3.92;;
42198;SDS011;27868;45.184;5.786;2022-07-29T10:09:40;8.07;;;4.38;;
42198;SDS011;27868;45.184;5.786;2022-07-29T10:12:57;7.95;;;3.88;;
42198;SDS011;27868;45.184;5.786;2022-07-29T10:15:43;8.63;;;3.70;;
42198;SDS011;27868;45.184;5.786;2022-07-29T10:18:29;8.68;;;3.80;;
42198;SDS011;27868;45.184;5.786;2022-07-29T10:21:15;8.20;;;3.65;;
42198;SDS011;27868;45.184;5.786;2022-07-29T10:24:00;5.68;;;4.03;;
42198;SDS011;27868;45.184;5.786;2022-07-29T10:26:45;9.07;;;3.70;;
42198;SDS011;27868;45.184;5.786;2022-07-29T10:29:31;6.22;;;3.70;;
42198;SDS011;27868;45.184;5.786;2022-07-29T10:32:19;6.97;;;3.80;;
42198;SDS011;27868;45.184;5.786;2022-07-29T10:35:11;5.78;;;3.72;;
42198;SDS011;27868;45.184;5.786;2022-07-29T10:41:29;8.77;;;3.87;;
42198;SDS011;27868;45.184;5.786;2022-07-29T10:44:27;15.32;;;4.65;;
42198;SDS011;27868;45.184;5.786;2022-07-29T10:47:25;10.68;;;4.05;;
42198;SDS011;27868;45.184;5.786;2022-07-29T10:50:11;7.97;;;3.60;;
42198;SDS011;27868;45.184;5.786;2022-07-29T10:52:55;12.82;;;4.28;;
42198;SDS011;27868;45.184;5.786;2022-07-29T10:55:40;6.35;;;3.50;;
42198;SDS011;27868;45.184;5.786;2022-07-29T10:58:29;6.60;;;3.78;;
42198;SDS011;27868;45.184;5.786;2022-07-29T11:01:30;7.68;;;3.88;;
42198;SDS011;27868;45.184;5.786;2022-07-29T11:04:15;5.90;;;4.20;;
42198;SDS011;27868;45.184;5.786;2022-07-29T11:12:58;9.00;;;5.30;;
42198;SDS011;27868;45.184;5.786;2022-07-29T11:15:53;6.85;;;5.25;;
42198;SDS011;27868;45.184;5.786;2022-07-29T11:22:04;7.57;;;4.57;;
42198;SDS011;27868;45.184;5.786;2022-07-29T11:28:08;6.88;;;4.75;;
42198;SDS011;27868;45.184;5.786;2022-07-29T11:31:00;8.38;;;5.13;;
42198;SDS011;27868;45.184;5.786;2022-07-29T11:33:46;8.93;;;4.82;;
42198;SDS011;27868;45.184;5.786;2022-07-29T11:36:31;10.57;;;4.53;;
42198;SDS011;27868;45.184;5.786;2022-07-29T11:39:25;17.83;;;11.05;;
42198;SDS011;27868;45.184;5.786;2022-07-29T11:47:54;7.75;;;4.47;;
42198;SDS011;27868;45.184;5.786;2022-07-29T11:50:42;10.65;;;5.13;;
42198;SDS011;27868;45.184;5.786;2022-07-29T11:53:26;11.43;;;5.35;;
42198;SDS011;27868;45.184;5.786;2022-07-29T11:56:11;8.45;;;5.45;;
42198;SDS011;27868;45.184;5.786;2022-07-29T11:59:05;10.60;;;5.57;;
42198;SDS011;27868;45.184;5.786;2022-07-29T12:07:37;6.72;;;5.32;;
42198;SDS011;27868;45.184;5.786;2022-07-29T12:10:23;10.60;;;5.13;;
42198;SDS011;27868;45.184;5.786;2022-07-29T12:13:15;8.48;;;4.80;;
42198;SDS011;27868;45.184;5.786;2022-07-29T12:16:01;9.73;;;5.10;;
42198;SDS011;27868;45.184;5.786;2022-07-29T12:18:56;9.77;;;5.30;;
42198;SDS011;27868;45.184;5.786;2022-07-29T12:21:46;7.38;;;4.60;;
42198;SDS011;27868;45.184;5.786;2022-07-29T12:24:42;7.55;;;5.32;;
42198;SDS011;27868;45.184;5.786;2022-07-29T12:27:28;7.22;;;5.07;;
42198;SDS011;27868;45.184;5.786;2022-07-29T12:30:14;9.27;;;5.38;;
42198;SDS011;27868;45.184;5.786;2022-07-29T12:33:00;7.80;;;5.40;;
42198;SDS011;27868;45.184;5.786;2022-07-29T12:35:45;8.70;;;4.50;;
42198;SDS011;27868;45.184;5.786;2022-07-29T12:38:32;7.55;;;4.80;;
42198;SDS011;27868;45.184;5.786;2022-07-29T12:41:20;6.05;;;4.72;;
42198;SDS011;27868;45.184;5.786;2022-07-29T12:44:04;6.82;;;4.22;;
42198;SDS011;27868;45.184;5.786;2022-07-29T12:47:10;10.18;;;4.53;;
42198;SDS011;27868;45.184;5.786;2022-07-29T12:50:10;6.18;;;4.40;;
42198;SDS011;27868;45.184;5.786;2022-07-29T12:53:08;7.55;;;4.13;;
42198;SDS011;27868;45.184;5.786;2022-07-29T12:55:57;9.32;;;4.53;;
42198;SDS011;27868;45.184;5.786;2022-07-29T12:58:46;6.10;;;3.80;;
42198;SDS011;27868;45.184;5.786;2022-07-29T13:01:35;4.50;;;3.78;;
42198;SDS011;27868;45.184;5.786;2022-07-29T13:04:28;9.63;;;3.50;;
42198;SDS011;27868;45.184;5.786;2022-07-29T13:07:13;7.00;;;3.97;;
42198;SDS011;27868;45.184;5.786;2022-07-29T13:10:14;5.45;;;3.42;;
42198;SDS011;27868;45.184;5.786;2022-07-29T13:13:05;4.70;;;3.50;;
42198;SDS011;27868;45.184;5.786;2022-07-29T13:16:04;5.22;;;3.50;;
42198;SDS011;27868;45.184;5.786;2022-07-29T13:21:53;5.70;;;3.20;;
42198;SDS011;27868;45.184;5.786;2022-07-29T13:24:53;6.97;;;3.15;;
42198;SDS011;27868;45.184;5.786;2022-07-29T13:27:39;5.90;;;3.20;;
42198;SDS011;27868;45.184;5.786;2022-07-29T13:30:24;5.90;;;3.55;;
42198;SDS011;27868;45.184;5.786;2022-07-29T13:33:09;6.65;;;3.70;;
42198;SDS011;27868;45.184;5.786;2022-07-29T13:35:53;4.78;;;3.65;;
42198;SDS011;27868;45.184;5.786;2022-07-29T13:38:38;7.03;;;3.70;;
42198;SDS011;27868;45.184;5.786;2022-07-29T13:41:23;6.22;;;3.55;;
42198;SDS011;27868;45.184;5.786;2022-07-29T13:44:08;4.55;;;3.17;;
42198;SDS011;27868;45.184;5.786;2022-07-29T13:46:52;7.32;;;3.60;;
42198;SDS011;27868;45.184;5.786;2022-07-29T13:49:37;5.53;;;3.60;;
42198;SDS011;27868;45.184;5.786;2022-07-29T13:52:21;6.03;;;3.45;;
42198;SDS011;27868;45.184;5.786;2022-07-29T13:55:06;5.18;;;3.80;;
42198;SDS011;27868;45.184;5.786;2022-07-29T13:57:52;5.78;;;3.90;;
42198;SDS011;27868;45.184;5.786;2022-07-29T14:00:36;7.97;;;4.20;;
42198;SDS011;27868;45.184;5.786;2022-07-29T14:03:21;6.88;;;3.83;;
42198;SDS011;27868;45.184;5.786;2022-07-29T14:06:06;5.57;;;3.50;;
42198;SDS011;27868;45.184;5.786;2022-07-29T14:08:51;6.70;;;3.75;;
42198;SDS011;27868;45.184;5.786;2022-07-29T14:11:35;7.22;;;3.40;;
42198;SDS011;27868;45.184;5.786;2022-07-29T14:14:22;6.03;;;3.88;;
42198;SDS011;27868;45.184;5.786;2022-07-29T14:17:06;5.20;;;3.47;;
42198;SDS011;27868;45.184;5.786;2022-07-29T14:19:51;8.80;;;4.07;;
42198;SDS011;27868;45.184;5.786;2022-07-29T14:22:35;5.15;;;3.90;;
42198;SDS011;27868;45.184;5.786;2022-07-29T14:25:20;5.32;;;3.47;;
42198;SDS011;27868;45.184;5.786;2022-07-29T14:28:04;8.45;;;3.17;;
42198;SDS011;27868;45.184;5.786;2022-07-29T14:30:49;6.53;;;3.25;;
42198;SDS011;27868;45.184;5.786;2022-07-29T14:33:33;5.07;;;3.22;;
42198;SDS011;27868;45.184;5.786;2022-07-29T14:36:18;7.78;;;3.20;;
42198;SDS011;27868;45.184;5.786;2022-07-29T14:39:02;4.30;;;2.38;;
42198;SDS011;27868;45.184;5.786;2022-07-29T14:41:47;6.47;;;2.85;;
42198;SDS011;27868;45.184;5.786;2022-07-29T14:44:32;4.70;;;2.90;;
42198;SDS011;27868;45.184;5.786;2022-07-29T14:47:17;5.25;;;3.15;;
42198;SDS011;27868;45.184;5.786;2022-07-29T14:50:04;4.15;;;2.88;;
42198;SDS011;27868;45.184;5.786;2022-07-29T14:52:49;4.63;;;2.97;;
42198;SDS011;27868;45.184;5.786;2022-07-29T14:55:33;6.63;;;2.85;;
42198;SDS011;27868;45.184;5.786;2022-07-29T14:58:19;3.53;;;2.53;;
42198;SDS011;27868;45.184;5.786;2022-07-29T15:01:06;3.13;;;2.38;;
42198;SDS011;27868;45.184;5.786;2022-07-29T15:03:52;3.25;;;2.45;;
42198;SDS011;27868;45.184;5.786;2022-07-29T15:06:37;3.40;;;2.17;;
42198;SDS011;27868;45.184;5.786;2022-07-29T15:09:22;4.97;;;2.40;;
42198;SDS011;27868;45.184;5.786;2022-07-29T15:12:07;3.10;;;2.05;;
42198;SDS011;27868;45.184;5.786;2022-07-29T15:14:52;2.63;;;2.20;;
42198;SDS011;27868;45.184;5.786;2022-07-29T15:17:37;3.40;;;2.30;;
42198;SDS011;27868;45.184;5.786;2022-07-29T15:20:21;4.00;;;2.15;;
42198;SDS011;27868;45.184;5.786;2022-07-29T15:23:09;4.88;;;2.10;;
42198;SDS011;27868;45.184;5.786;2022-07-29T15:25:54;4.10;;;1.98;;
42198;SDS011;27868;45.184;5.786;2022-07-29T15:28:38;3.83;;;1.77;;
42198;SDS011;27868;45.184;5.786;2022-07-29T15:31:24;2.97;;;2.03;;
42198;SDS011;27868;45.184;5.786;2022-07-29T15:34:08;2.25;;;1.85;;
42198;SDS011;27868;45.184;5.786;2022-07-29T15:36:53;4.05;;;2.00;;
42198;SDS011;27868;45.184;5.786;2022-07-29T15:39:38;2.60;;;1.85;;
42198;SDS011;27868;45.184;5.786;2022-07-29T15:42:22;2.97;;;2.10;;
42198;SDS011;27868;45.184;5.786;2022-07-29T15:45:07;5.43;;;2.00;;
42198;SDS011;27868;45.184;5.786;2022-07-29T15:47:52;2.88;;;1.83;;
42198;SDS011;27868;45.184;5.786;2022-07-29T15:50:36;2.38;;;1.70;;
42198;SDS011;27868;45.184;5.786;2022-07-29T15:53:21;1.83;;;1.50;;
42198;SDS011;27868;45.184;5.786;2022-07-29T15:56:06;2.35;;;1.55;;
42198;SDS011;27868;45.184;5.786;2022-07-29T15:58:51;2.97;;;1.90;;
42198;SDS011;27868;45.184;5.786;2022-07-29T16:01:35;2.47;;;1.80;;
42198;SDS011;27868;45.184;5.786;2022-07-29T16:04:20;1.88;;;1.67;;
42198;SDS011;27868;45.184;5.786;2022-07-29T16:07:05;2.60;;;1.63;;
42198;SDS011;27868;45.184;5.786;2022-07-29T16:09:50;2.70;;;1.65;;
42198;SDS011;27868;45.184;5.786;2022-07-29T16:12:34;2.65;;;1.92;;
42198;SDS011;27868;45.184;5.786;2022-07-29T16:15:19;2.05;;;1.60;;
42198;SDS011;27868;45.184;5.786;2022-07-29T16:18:03;2.50;;;1.60;;
42198;SDS011;27868;45.184;5.786;2022-07-29T16:20:48;2.38;;;1.70;;
42198;SDS011;27868;45.184;5.786;2022-07-29T16:23:33;3.67;;;2.05;;
42198;SDS011;27868;45.184;5.786;2022-07-29T16:26:17;3.00;;;2.10;;
42198;SDS011;27868;45.184;5.786;2022-07-29T16:29:02;3.17;;;2.20;;
42198;SDS011;27868;45.184;5.786;2022-07-29T16:31:47;3.78;;;2.40;;
42198;SDS011;27868;45.184;5.786;2022-07-29T16:34:32;4.15;;;2.10;;
42198;SDS011;27868;45.184;5.786;2022-07-29T16:37:18;3.83;;;1.98;;
42198;SDS011;27868;45.184;5.786;2022-07-29T16:40:03;2.53;;;1.67;;
42198;SDS011;27868;45.184;5.786;2022-07-29T16:42:49;2.47;;;1.38;;
42198;SDS011;27868;45.184;5.786;2022-07-29T16:45:34;1.70;;;1.40;;
42198;SDS011;27868;45.184;5.786;2022-07-29T16:48:19;3.38;;;1.30;;
42198;SDS011;27868;45.184;5.786;2022-07-29T16:51:04;2.22;;;1.40;;
42198;SDS011;27868;45.184;5.786;2022-07-29T16:53:50;2.15;;;1.58;;
42198;SDS011;27868;45.184;5.786;2022-07-29T16:56:34;1.67;;;1.58;;
42198;SDS011;27868;45.184;5.786;2022-07-29T16:59:20;3.30;;;1.52;;
42198;SDS011;27868;45.184;5.786;2022-07-29T17:02:05;2.22;;;1.60;;
42198;SDS011;27868;45.184;5.786;2022-07-29T17:04:49;3.25;;;1.88;;
42198;SDS011;27868;45.184;5.786;2022-07-29T17:07:34;2.67;;;1.60;;
42198;SDS011;27868;45.184;5.786;2022-07-29T17:10:19;1.63;;;1.20;;
42198;SDS011;27868;45.184;5.786;2022-07-29T17:13:05;2.22;;;1.30;;
42198;SDS011;27868;45.184;5.786;2022-07-29T17:15:49;4.40;;;1.33;;
42198;SDS011;27868;45.184;5.786;2022-07-29T17:18:34;2.95;;;1.50;;
42198;SDS011;27868;45.184;5.786;2022-07-29T17:21:18;2.00;;;1.27;;
42198;SDS011;27868;45.184;5.786;2022-07-29T17:24:04;2.50;;;0.90;;
42198;SDS011;27868;45.184;5.786;2022-07-29T17:26:48;2.00;;;1.00;;
42198;SDS011;27868;45.184;5.786;2022-07-29T17:29:33;1.40;;;1.10;;
42198;SDS011;27868;45.184;5.786;2022-07-29T17:32:18;1.88;;;1.10;;
42198;SDS011;27868;45.184;5.786;2022-07-29T17:35:03;2.53;;;1.00;;